Jeffco Stadium (Lakewood), Colorado
Current Conditions -  °F | °C
As of 2:46 PM on Thursday 23 Oct 2014 (Local Time) from KBJC Reporting Station
Broken Clouds Broken Clouds  
Wind Chill: 73°   Ceiling: 20000
Heat Index: 73°   Visibility: 70mi
Dew Point: 30°   Wind: 10mph
Humidity: 20%   Direction: 130°SE
Pressure: 30.13"   Gusts: NA
Location:  39.72179°N, 105.1096°W
Report Text: KBJC 232046Z 13009KT 70SM SCT100 BKN200 23/M01 A3013
Loading
Personal Weather Stations






























Interactive Weather Map
Tropical Storm Tracking
New forecast layout! Learn more

10-Day Weather Forecast

Advertisements
Track Severe Weather on mobile